Terminal Aerodrome Forecast
Issued by NWS Wakefield, VA

Home | Current Version | Previous Version | Text Only | Print | Product List | Glossary On
Versions: 1 2 3 4 5 6 7 8 9 10 11 12 13 14 15 16 17 18 19 20 21 22
571
FTUS41 KAKQ 251759 CCA
TAFSBY
TAF COR
KSBY 251759Z 2518/2618 08012KT 4SM -SHRA OVC008
      TEMPO 2518/2521 OVC005
     FM252100 08009KT 4SM -SHRA BR OVC008
     FM260000 10005KT 3SM -SHRA BR OVC007
     FM260200 08004KT 2SM -SHRA BR OVC005
     FM261000 VRB03KT 2SM BR OVC004
     FM261500 32005KT P6SM BKN006=

USA.gov is the U.S. government's official web portal to all federal, state and local government web resources and services.